This is the latest recevied weather packets stored in our database for station/object KF4WSW-13. If no packets are shown the sender has not sent any weather packets the latest 1 day(s).
| Time | Temp. | Humidity | Pressure | Rain* | Wind** | Luminosity | Snow |
|---|---|---|---|---|---|---|---|
| 1836274755 | 26.67° C | 84% | 1014.4 hPa | 0 mm | 1.34 m/s, 61° | 0 W/m² | - |
| 1836274453 | 26.67° C | 84% | 1014.5 hPa | 0 mm | 0.89 m/s, 311° | 0 W/m² | - |
| 1836274306 | 26.67° C | 85% | 1014.6 hPa | 0 mm | 0.89 m/s, 297° | 0 W/m² | - |
| 1836274151 | 26.67° C | 84% | 1014.6 hPa | 0 mm | 1.34 m/s, 87° | 0 W/m² | - |
| 1778042832 | 22.22° C | 89% | 1014.6 hPa | 0 mm | 0 m/s | 0 W/m² | - |
| 1778042529 | 22.78° C | 88% | 1014.6 hPa | 0 mm | 0 m/s | 0 W/m² | - |
| 1778042226 | 22.78° C | 88% | 1014.8 hPa | 0 mm | 0 m/s | 0 W/m² | - |
| 1778041924 | 22.78° C | 88% | 1014.7 hPa | 0 mm | 0.45 m/s, 193° | 0 W/m² | - |
| 1778041623 | 22.78° C | 87% | 1014.8 hPa | 0 mm | 0.89 m/s, 95° | 0 W/m² | - |
| 1778041321 | 22.78° C | 86% | 1014.8 hPa | 0 mm | 0 m/s | 0 W/m² | - |
| 1778041019 | 22.78° C | 86% | 1015 hPa | 0 mm | 0 m/s | 0 W/m² | - |
| 1778040715 | 22.78° C | 86% | 1014.9 hPa | 0 mm | 0 m/s | 0 W/m² | - |
| 1778040413 | 22.78° C | 86% | 1014.6 hPa | 0 mm | 0 m/s | 0 W/m² | - |
| 1778040110 | 22.78° C | 86% | 1014.5 hPa | 0 mm | 0.45 m/s, 244° | 0 W/m² | - |
| 1778039807 | 22.78° C | 86% | 1014.4 hPa | 0 mm | 0.45 m/s, 219° | 0 W/m² | - |
| 1778039503 | 22.78° C | 86% | 1014.5 hPa | 0 mm | 0 m/s | 0 W/m² | - |
| 1778039200 | 22.78° C | 86% | 1014.7 hPa | 0 mm | 0 m/s | 0 W/m² | - |
| 1778038897 | 22.78° C | 86% | 1014.7 hPa | 0 mm | 0.45 m/s, 229° | 0 W/m² | - |
| 1778038595 | 23.33° C | 87% | 1014.5 hPa | 0 mm | 0.45 m/s, 250° | 0 W/m² | - |
| 1778038291 | 23.33° C | 87% | 1014.4 hPa | 0 mm | 1.79 m/s, 114° | 0 W/m² | - |
| 1778037989 | 23.33° C | 86% | 1014.4 hPa | 0 mm | 1.34 m/s, 87° | 0 W/m² | - |
| 1778037685 | 23.33° C | 86% | 1014.5 hPa | 0 mm | 1.79 m/s, 147° | 0 W/m² | - |
| 1778037382 | 23.33° C | 86% | 1014.5 hPa | 0 mm | 2.68 m/s, 98° | 0 W/m² | - |
| 1778037079 | 23.33° C | 87% | 1014.6 hPa | 0 mm | 1.34 m/s, 155° | 0 W/m² | - |
| 1778036778 | 23.33° C | 87% | 1014.5 hPa | 0 mm | 3.13 m/s, 94° | 0 W/m² | - |
* Rain latest hour (hover to see other rain measurements)
** Current wind speed in m/s (hover to see current wind gust speed)